Terminal Aerodrome Forecast
Issued by NWS Cleveland, OH

Home | Current Version | Previous Version | Graphics & Text | Print | Product List | Glossary On
Versions: 1 2 3 4 5 6 7 8 9 10 11 12 13 14 15 16 17 18 19 20 21 22 23 24
000
FTUS41 KCLE 230539
TAFCAK
TAF
KCAK 230539Z 2306/2406 15010KT P6SM OVC006
     FM231200 14008KT 4SM -RA BR OVC006
     FM231300 14008KT 2SM RA BR OVC003
     FM231700 20011KT 5SM -RA BR OVC007
     FM232100 25010KT P6SM OVC007=

USA.gov is the U.S. government's official web portal to all federal, state and local government web resources and services.